Rio Pardo, Brazil
Current Conditions -  °F | °C
As of 7:00 PM on Friday 31 Oct 2014 (Local Time) from SBPA Reporting Station
Broken Clouds Broken Clouds  
Wind Chill: 77°   Ceiling: 2500
Heat Index: 79°   Visibility: 6mi
Dew Point: 68°   Wind: 14mph
Humidity: 74%   Direction: 130°SE
Pressure: 29.88"   Gusts: NA
Location:  29.99°S, 52.38°W
Report Text: SBPA 312100Z 13012KT 9999 BKN025 25/20 Q1012
Loading
Personal Weather Stations






























Interactive Weather Map
Tropical Storm Tracking
New forecast layout! Learn more

10-Day Weather Forecast

Advertisements
Track Severe Weather on mobile